• Join FlightAware (Why Join?)
  • Login
  • US Flag 
03:10PM EDT


 

Airport Tracker/Info


-or-


 

Live Flight TrackerFlight Track Log ✈ N53FJ ✈ 12-Apr-2013 ✈ KMAF - KDAL

Flight Track Log - Related Links

Times and Time Zones

All times are in EDT time to prevent confusion due to time zone crossing. See the N53FJ flight status page for this flight to view local times or setup timezone preferences in your user account.

Time Position Orientation Groundspeed Altitude Reporting Facility
EDT Latitude Longitude Course Direction KTS MPH feet Rate Location/Type
09:50AM 32.0158 -100.9267 77° East 510 587 29,000  Level Fort Worth Center
09:51AM 32.0269 -100.7556 86° East 516 594 29,000  Level Fort Worth Center
09:52AM 32.0356 -100.5819 87° East 521 600 29,000  Level Fort Worth Center
09:53AM 32.0461 -100.4108 86° East 521 600 29,000  Level Fort Worth Center
09:54AM 32.0542 -100.2369 87° East 521 600 29,000  Level Fort Worth Center
09:55AM 32.0642 -100.0633 86° East 526 605 29,000  Level Fort Worth Center
09:56AM 32.0719 -99.8919 87° East 526 605 29,000  Level Fort Worth Center
09:57AM 32.0814 -99.7181 86° East 526 605 29,000  Level Fort Worth Center
09:58AM 32.0889 -99.5419 87° East 531 611 29,000  Level Fort Worth Center
09:59AM 32.0978 -99.3728 86° East 531 611 29,000  Level Fort Worth Center
10:00AM 32.1044 -99.1989 87° East 531 611 29,000  Level Fort Worth Center
10:01AM 32.1131 -99.0247 87° East 531 611 29,000  Level Fort Worth Center
10:02AM 32.1217 -98.8508 87° East 531 611 29,000  Level Fort Worth Center
10:03AM 32.1275 -98.6792 88° East 531 611 29,000  Level Fort Worth Center
10:04AM 32.1333 -98.5050 88° East 531 611 29,000 -1,200 Level Fort Worth Center
10:05AM 32.1411 -98.3408 87° East 515 593 26,700  Descending Fort Worth Center
10:06AM 32.1483 -98.1764 87° East 501 577 29,000 -2,580 Climbing Fort Worth Center
10:07AM 32.1553 -98.0367 87° East 482 555 21,600 -5,040 Descending Fort Worth Center
10:08AM 32.1936 -97.8775 74° East 470 541 19,000 -2,460 Descending Fort Worth Center
10:09AM 32.2544 -97.7694 56° Northeast 434 499 16,800 -2,220 Descending Fort Worth Center
10:10AM 32.3361 -97.6692 46° Northeast 397 457 14,600 -2,040 Descending Fort Worth Center
10:11AM 32.4011 -97.5906 46° Northeast 366 421 12,800 -1,800 Descending Fort Worth Center
10:12AM 32.4783 -97.4972 46° Northeast 352 405 11,000 -900 Descending Fort Worth Center
10:13AM 32.5431 -97.4208 45° Northeast 352 405 11,000  Level Fort Worth Center
10:14AM 32.6142 -97.3319 46° Northeast 352 405 11,000  Level Fort Worth Center
10:15AM 32.6622 -97.2728 46° Northeast 298 343 11,000  Level Fort Worth Center
10:16AM 32.7183 -97.2083 44° Northeast 256 295 11,000 -300 Level Fort Worth Center
10:17AM 32.7747 -97.1761 26° Northeast 245 282 10,400 -1,320 Descending Fort Worth Center
10:18AM 32.8542 -97.1786 358° North 240 276 8,400 -2,040 Descending Fort Worth Center
10:19AM 32.9000 -97.1364 38° Northeast 223 257 6,400 -2,160 Descending Fort Worth Center
10:19AM 32.9167 -97.1000 61° Northeast 229 264 5,200 -1,620 Descending Dallas / Fort Worth TRACON
10:20AM 32.9500 -97.0500 52° Northeast 211 243 4,100 -600 Descending Dallas / Fort Worth TRACON
10:21AM 32.9500 -96.9833 90° East 190 219 4,100 -240 Level Dallas / Fort Worth TRACON
10:22AM 32.9167 -96.9333 128° Southeast 192 221 3,700 -1,260 Descending Dallas / Fort Worth TRACON
10:23AM 32.8833 -96.9000 140° Southeast 139 160 1,800 -1,440 Descending Dallas / Fort Worth TRACON
10:24AM 32.8667 -96.8833 140° Southeast 121 139 900 -900 Descending Dallas / Fort Worth TRACON
10:26AM 32.8471 -96.8518 108° East  Level Estimated
10:33AM 32.8471 -96.8518 108° East  Level Estimated
10:34AM 32.8471 -96.8518 108° East  Level Estimated
10:35AM 32.8471 -96.8518 108° East  Level Estimated
10:36AM 32.8471 -96.8518 108° East  Level Estimated
10:37AM 32.8471 -96.8518 108° East  Level Estimated
10:38AM 32.8471 -96.8518 108° East  Level Estimated
10:39AM 32.8471 -96.8518 108° East  Level Estimated